sensor_id;sensor_type;location;lat;lon;timestamp;pressure;altitude;pressure_sealevel;temperature;humidity
39891;BME280;25564;53.312;9.790;2023-03-03T00:00:37;101773.41;;;3.10;92.69
39891;BME280;25564;53.312;9.790;2023-03-03T00:03:11;101726.44;;;2.89;93.40
39891;BME280;25564;53.312;9.790;2023-03-03T00:05:44;101764.69;;;3.12;92.74
39891;BME280;25564;53.312;9.790;2023-03-03T00:08:17;101739.06;;;3.02;93.62
39891;BME280;25564;53.312;9.790;2023-03-03T00:10:49;101770.06;;;3.17;93.18
39891;BME280;25564;53.312;9.790;2023-03-03T00:13:23;101762.34;;;3.21;93.83
39891;BME280;25564;53.312;9.790;2023-03-03T00:16:10;101766.06;;;3.29;93.77
39891;BME280;25564;53.312;9.790;2023-03-03T00:18:45;101758.28;;;3.33;93.33
39891;BME280;25564;53.312;9.790;2023-03-03T00:21:22;101752.13;;;3.31;93.45
39891;BME280;25564;53.312;9.790;2023-03-03T00:24:39;101760.91;;;3.33;92.80
39891;BME280;25564;53.312;9.790;2023-03-03T00:27:25;101758.16;;;3.28;92.59
39891;BME280;25564;53.312;9.790;2023-03-03T00:29:59;101754.38;;;3.18;93.41
39891;BME280;25564;53.312;9.790;2023-03-03T00:32:41;101756.97;;;3.17;93.41
39891;BME280;25564;53.312;9.790;2023-03-03T00:35:27;101763.94;;;3.16;94.01
39891;BME280;25564;53.312;9.790;2023-03-03T00:38:09;101740.09;;;3.07;93.56
39891;BME280;25564;53.312;9.790;2023-03-03T00:40:41;101759.44;;;3.12;93.47
39891;BME280;25564;53.312;9.790;2023-03-03T00:43:24;101756.78;;;3.09;93.45
39891;BME280;25564;53.312;9.790;2023-03-03T00:45:56;101758.47;;;3.07;93.04
39891;BME280;25564;53.312;9.790;2023-03-03T00:51:30;101759.25;;;3.05;93.08
39891;BME280;25564;53.312;9.790;2023-03-03T00:54:01;101740.44;;;2.89;93.18
39891;BME280;25564;53.312;9.790;2023-03-03T00:56:33;101762.72;;;3.04;93.56
39891;BME280;25564;53.312;9.790;2023-03-03T00:59:04;101755.84;;;3.07;94.00
39891;BME280;25564;53.312;9.790;2023-03-03T01:01:35;101757.69;;;3.11;94.22
39891;BME280;25564;53.312;9.790;2023-03-03T01:04:07;101747.22;;;3.13;93.12
39891;BME280;25564;53.312;9.790;2023-03-03T01:06:38;101721.56;;;3.01;93.95
39891;BME280;25564;53.312;9.790;2023-03-03T01:09:09;101721.66;;;3.04;92.97
39891;BME280;25564;53.312;9.790;2023-03-03T01:11:41;101716.41;;;3.04;94.20
39891;BME280;25564;53.312;9.790;2023-03-03T01:14:12;101741.19;;;3.15;93.65
39891;BME280;25564;53.312;9.790;2023-03-03T01:16:44;101732.16;;;3.04;93.64
39891;BME280;25564;53.312;9.790;2023-03-03T01:19:15;101743.44;;;3.02;93.81
39891;BME280;25564;53.312;9.790;2023-03-03T01:21:47;101731.78;;;2.92;94.00
39891;BME280;25564;53.312;9.790;2023-03-03T01:24:18;101748.69;;;3.02;93.57
39891;BME280;25564;53.312;9.790;2023-03-03T01:26:49;101719.53;;;2.91;93.95
39891;BME280;25564;53.312;9.790;2023-03-03T01:29:21;101747.13;;;3.08;93.51
39891;BME280;25564;53.312;9.790;2023-03-03T01:31:53;101741.84;;;3.07;93.52
39891;BME280;25564;53.312;9.790;2023-03-03T01:34:24;101740.94;;;3.06;93.70
39891;BME280;25564;53.312;9.790;2023-03-03T01:36:56;101730.19;;;2.97;94.08
39891;BME280;25564;53.312;9.790;2023-03-03T01:39:27;101680.44;;;2.70;93.89
39891;BME280;25564;53.312;9.790;2023-03-03T01:41:58;101731.03;;;2.96;94.03
39891;BME280;25564;53.312;9.790;2023-03-03T01:44:30;101730.38;;;3.03;93.74
39891;BME280;25564;53.312;9.790;2023-03-03T01:47:15;101703.94;;;2.95;94.20
39891;BME280;25564;53.312;9.790;2023-03-03T01:49:55;101712.94;;;3.05;94.11
39891;BME280;25564;53.312;9.790;2023-03-03T01:52:45;101725.44;;;3.15;93.46
39891;BME280;25564;53.312;9.790;2023-03-03T01:55:23;101718.38;;;3.11;93.92
39891;BME280;25564;53.312;9.790;2023-03-03T01:57:59;101715.69;;;3.10;94.07
39891;BME280;25564;53.312;9.790;2023-03-03T02:00:33;101718.31;;;3.10;94.08
39891;BME280;25564;53.312;9.790;2023-03-03T02:03:06;101708.69;;;3.09;94.48
39891;BME280;25564;53.312;9.790;2023-03-03T02:05:40;101710.19;;;3.01;93.79
39891;BME280;25564;53.312;9.790;2023-03-03T02:08:14;101717.13;;;2.99;93.77
39891;BME280;25564;53.312;9.790;2023-03-03T02:10:47;101691.44;;;2.87;94.18
39891;BME280;25564;53.312;9.790;2023-03-03T02:13:19;101701.38;;;2.99;94.20
39891;BME280;25564;53.312;9.790;2023-03-03T02:15:50;101702.28;;;2.99;94.13
39891;BME280;25564;53.312;9.790;2023-03-03T02:18:22;101688.06;;;2.91;94.19
39891;BME280;25564;53.312;9.790;2023-03-03T02:26:29;101707.78;;;3.08;94.47
39891;BME280;25564;53.312;9.790;2023-03-03T02:29:02;101697.16;;;3.04;94.33
39891;BME280;25564;53.312;9.790;2023-03-03T02:31:34;101708.78;;;3.13;93.80
39891;BME280;25564;53.312;9.790;2023-03-03T02:34:05;101680.50;;;3.02;93.78
39891;BME280;25564;53.312;9.790;2023-03-03T02:36:38;101702.72;;;3.16;94.28
39891;BME280;25564;53.312;9.790;2023-03-03T02:39:17;101700.06;;;3.14;93.95
39891;BME280;25564;53.312;9.790;2023-03-03T02:44:58;101669.66;;;2.89;94.40
39891;BME280;25564;53.312;9.790;2023-03-03T02:47:30;101652.59;;;2.74;93.95
39891;BME280;25564;53.312;9.790;2023-03-03T02:50:01;101698.81;;;3.00;94.81
39891;BME280;25564;53.312;9.790;2023-03-03T02:52:32;101705.94;;;3.04;94.47
39891;BME280;25564;53.312;9.790;2023-03-03T02:55:04;101707.53;;;2.99;94.43
39891;BME280;25564;53.312;9.790;2023-03-03T02:57:36;101704.78;;;2.94;94.05
39891;BME280;25564;53.312;9.790;2023-03-03T03:00:07;101704.84;;;2.98;94.77
39891;BME280;25564;53.312;9.790;2023-03-03T03:02:39;101707.63;;;3.02;94.10
39891;BME280;25564;53.312;9.790;2023-03-03T03:05:10;101711.03;;;3.00;94.08
39891;BME280;25564;53.312;9.790;2023-03-03T03:07:41;101706.41;;;2.91;93.87
39891;BME280;25564;53.312;9.790;2023-03-03T03:10:13;101703.69;;;2.88;94.70
39891;BME280;25564;53.312;9.790;2023-03-03T03:12:44;101709.66;;;2.82;94.62
39891;BME280;25564;53.312;9.790;2023-03-03T03:15:16;101703.53;;;2.82;94.89
39891;BME280;25564;53.312;9.790;2023-03-03T03:17:47;101705.13;;;2.77;94.70
39891;BME280;25564;53.312;9.790;2023-03-03T03:20:18;101677.59;;;2.62;94.75
39891;BME280;25564;53.312;9.790;2023-03-03T03:22:49;101690.78;;;2.66;94.38
39891;BME280;25564;53.312;9.790;2023-03-03T03:25:21;101679.91;;;2.52;94.58
39891;BME280;25564;53.312;9.790;2023-03-03T03:27:52;101692.38;;;2.60;94.83
39891;BME280;25564;53.312;9.790;2023-03-03T03:30:23;101678.34;;;2.58;94.37
39891;BME280;25564;53.312;9.790;2023-03-03T03:32:55;101722.81;;;2.84;94.80
39891;BME280;25564;53.312;9.790;2023-03-03T03:35:27;101722.00;;;2.86;94.47
39891;BME280;25564;53.312;9.790;2023-03-03T03:37:58;101694.34;;;2.68;94.13
39891;BME280;25564;53.312;9.790;2023-03-03T03:40:29;101723.19;;;2.68;94.75
39891;BME280;25564;53.312;9.790;2023-03-03T03:43:01;101722.91;;;2.58;94.43
39891;BME280;25564;53.312;9.790;2023-03-03T03:45:32;101732.34;;;2.53;94.80
39891;BME280;25564;53.312;9.790;2023-03-03T03:48:04;101728.59;;;2.45;94.83
39891;BME280;25564;53.312;9.790;2023-03-03T03:50:35;101735.63;;;2.46;94.81
39891;BME280;25564;53.312;9.790;2023-03-03T03:53:08;101737.19;;;2.41;94.89
39891;BME280;25564;53.312;9.790;2023-03-03T03:55:39;101720.34;;;2.33;94.81
39891;BME280;25564;53.312;9.790;2023-03-03T03:58:12;101728.34;;;2.38;95.05
39891;BME280;25564;53.312;9.790;2023-03-03T04:00:45;101715.84;;;2.29;95.21
39891;BME280;25564;53.312;9.790;2023-03-03T04:03:16;101727.56;;;2.40;94.74
39891;BME280;25564;53.312;9.790;2023-03-03T04:05:51;101722.28;;;2.39;94.57
39891;BME280;25564;53.312;9.790;2023-03-03T04:08:22;101707.94;;;2.27;94.75
39891;BME280;25564;53.312;9.790;2023-03-03T04:10:54;101731.75;;;2.35;95.21
39891;BME280;25564;53.312;9.790;2023-03-03T04:13:25;101724.69;;;2.33;94.59
39891;BME280;25564;53.312;9.790;2023-03-03T04:15:59;101710.81;;;2.35;94.74
39891;BME280;25564;53.312;9.790;2023-03-03T04:18:31;101713.47;;;2.37;94.85
39891;BME280;25564;53.312;9.790;2023-03-03T04:21:03;101711.00;;;2.41;94.92
39891;BME280;25564;53.312;9.790;2023-03-03T04:23:34;101707.63;;;2.45;95.05
39891;BME280;25564;53.312;9.790;2023-03-03T04:26:06;101695.00;;;2.32;95.19
39891;BME280;25564;53.312;9.790;2023-03-03T04:28:38;101707.25;;;2.33;95.59
39891;BME280;25564;53.312;9.790;2023-03-03T04:31:09;101708.09;;;2.32;94.84
39891;BME280;25564;53.312;9.790;2023-03-03T04:33:41;101700.22;;;2.32;95.09
39891;BME280;25564;53.312;9.790;2023-03-03T04:36:12;101704.72;;;2.36;95.27
39891;BME280;25564;53.312;9.790;2023-03-03T04:38:44;101686.28;;;2.33;94.79
39891;BME280;25564;53.312;9.790;2023-03-03T04:41:15;101701.50;;;2.45;95.16
39891;BME280;25564;53.312;9.790;2023-03-03T04:43:47;101693.47;;;2.39;95.05
39891;BME280;25564;53.312;9.790;2023-03-03T04:46:18;101685.06;;;2.22;95.06
39891;BME280;25564;53.312;9.790;2023-03-03T04:48:50;101694.69;;;2.23;94.82
39891;BME280;25564;53.312;9.790;2023-03-03T04:51:21;101682.00;;;2.08;95.15
39891;BME280;25564;53.312;9.790;2023-03-03T04:53:53;101690.00;;;2.13;95.12
39891;BME280;25564;53.312;9.790;2023-03-03T04:56:24;101691.69;;;2.11;95.37
39891;BME280;25564;53.312;9.790;2023-03-03T04:58:56;101695.19;;;2.11;94.88
39891;BME280;25564;53.312;9.790;2023-03-03T05:01:27;101683.56;;;2.02;94.82
39891;BME280;25564;53.312;9.790;2023-03-03T05:03:59;101678.22;;;1.99;94.46
39891;BME280;25564;53.312;9.790;2023-03-03T05:06:30;101681.06;;;2.05;95.00
39891;BME280;25564;53.312;9.790;2023-03-03T05:09:01;101703.19;;;2.16;95.08
39891;BME280;25564;53.312;9.790;2023-03-03T05:11:32;101704.03;;;2.15;94.62
39891;BME280;25564;53.312;9.790;2023-03-03T05:14:04;101703.00;;;2.10;94.91
39891;BME280;25564;53.312;9.790;2023-03-03T05:16:35;101704.84;;;2.12;95.39
39891;BME280;25564;53.312;9.790;2023-03-03T05:19:06;101685.34;;;2.03;95.21
39891;BME280;25564;53.312;9.790;2023-03-03T05:21:38;101706.75;;;2.18;95.38
39891;BME280;25564;53.312;9.790;2023-03-03T05:24:13;101714.72;;;2.21;94.92
39891;BME280;25564;53.312;9.790;2023-03-03T05:26:44;101703.84;;;2.09;95.07
39891;BME280;25564;53.312;9.790;2023-03-03T05:29:16;101710.81;;;2.08;95.34
39891;BME280;25564;53.312;9.790;2023-03-03T05:31:47;101699.97;;;1.96;95.43
39891;BME280;25564;53.312;9.790;2023-03-03T05:34:18;101724.06;;;2.13;95.23
39891;BME280;25564;53.312;9.790;2023-03-03T05:36:50;101729.28;;;2.13;94.80
39891;BME280;25564;53.312;9.790;2023-03-03T05:39:22;101680.50;;;1.88;94.70
39891;BME280;25564;53.312;9.790;2023-03-03T05:41:53;101710.97;;;2.13;95.27
39891;BME280;25564;53.312;9.790;2023-03-03T05:44:26;101720.31;;;2.05;94.65
39891;BME280;25564;53.312;9.790;2023-03-03T05:46:58;101719.91;;;1.92;95.13
39891;BME280;25564;53.312;9.790;2023-03-03T05:49:29;101703.78;;;1.80;94.95
39891;BME280;25564;53.312;9.790;2023-03-03T05:52:01;101717.13;;;1.88;94.69
39891;BME280;25564;53.312;9.790;2023-03-03T05:54:32;101698.78;;;1.86;95.33
39891;BME280;25564;53.312;9.790;2023-03-03T05:57:03;101718.44;;;2.01;95.69
39891;BME280;25564;53.312;9.790;2023-03-03T05:59:35;101714.31;;;2.09;94.90
39891;BME280;25564;53.312;9.790;2023-03-03T06:02:06;101717.03;;;2.12;94.96
39891;BME280;25564;53.312;9.790;2023-03-03T06:04:37;101710.97;;;2.13;95.17
39891;BME280;25564;53.312;9.790;2023-03-03T06:07:10;101719.06;;;2.20;95.43
39891;BME280;25564;53.312;9.790;2023-03-03T06:09:41;101720.41;;;2.08;95.22
39891;BME280;25564;53.312;9.790;2023-03-03T06:12:12;101738.50;;;2.00;94.70
39891;BME280;25564;53.312;9.790;2023-03-03T06:14:44;101743.47;;;1.92;95.10
39891;BME280;25564;53.312;9.790;2023-03-03T06:17:15;101725.72;;;1.84;95.03
39891;BME280;25564;53.312;9.790;2023-03-03T06:19:47;101717.72;;;1.79;95.12
39891;BME280;25564;53.312;9.790;2023-03-03T06:22:18;101739.28;;;1.98;95.11
39891;BME280;25564;53.312;9.790;2023-03-03T06:24:49;101732.56;;;2.06;95.06
39891;BME280;25564;53.312;9.790;2023-03-03T06:27:22;101730.00;;;2.07;94.81
39891;BME280;25564;53.312;9.790;2023-03-03T06:29:54;101731.91;;;2.13;94.80
39891;BME280;25564;53.312;9.790;2023-03-03T06:32:25;101721.25;;;2.07;94.82
39891;BME280;25564;53.312;9.790;2023-03-03T06:34:57;101722.72;;;1.99;94.56
39891;BME280;25564;53.312;9.790;2023-03-03T06:37:28;101760.53;;;2.07;94.50
39891;BME280;25564;53.312;9.790;2023-03-03T06:39:59;101746.97;;;1.93;95.15
39891;BME280;25564;53.312;9.790;2023-03-03T06:42:31;101764.50;;;1.95;94.42
39891;BME280;25564;53.312;9.790;2023-03-03T06:45:02;101738.38;;;1.72;94.68
39891;BME280;25564;53.312;9.790;2023-03-03T06:47:34;101777.44;;;1.91;94.99
39891;BME280;25564;53.312;9.790;2023-03-03T06:50:06;101759.06;;;1.89;94.59
39891;BME280;25564;53.312;9.790;2023-03-03T06:52:37;101770.69;;;1.98;94.70
39891;BME280;25564;53.312;9.790;2023-03-03T06:55:11;101763.69;;;1.96;95.14
39891;BME280;25564;53.312;9.790;2023-03-03T06:57:43;101768.69;;;1.90;95.03
39891;BME280;25564;53.312;9.790;2023-03-03T07:00:22;101766.97;;;1.91;94.72
39891;BME280;25564;53.312;9.790;2023-03-03T07:03:06;101757.97;;;1.83;95.15
39891;BME280;25564;53.312;9.790;2023-03-03T07:05:38;101765.81;;;1.83;94.93
39891;BME280;25564;53.312;9.790;2023-03-03T07:08:15;101761.47;;;1.83;94.78
39891;BME280;25564;53.312;9.790;2023-03-03T07:10:47;101756.75;;;1.73;94.84
39891;BME280;25564;53.312;9.790;2023-03-03T07:13:25;101782.50;;;1.86;95.05
39891;BME280;25564;53.312;9.790;2023-03-03T07:16:00;101773.16;;;1.93;95.02
39891;BME280;25564;53.312;9.790;2023-03-03T07:18:49;101781.22;;;1.99;95.02
39891;BME280;25564;53.312;9.790;2023-03-03T07:21:30;101781.25;;;2.01;95.17
39891;BME280;25564;53.312;9.790;2023-03-03T07:24:25;101786.59;;;2.04;94.70
39891;BME280;25564;53.312;9.790;2023-03-03T07:29:51;101793.09;;;1.89;95.00
39891;BME280;25564;53.312;9.790;2023-03-03T07:32:28;101789.75;;;1.93;95.05
39891;BME280;25564;53.312;9.790;2023-03-03T07:35:22;101794.31;;;1.99;94.79
39891;BME280;25564;53.312;9.790;2023-03-03T07:37:57;101778.38;;;1.93;94.64
39891;BME280;25564;53.312;9.790;2023-03-03T07:43:26;101800.22;;;2.20;95.32
39891;BME280;25564;53.312;9.790;2023-03-03T07:48:41;101797.28;;;2.37;95.28
39891;BME280;25564;53.312;9.790;2023-03-03T07:51:26;101804.47;;;2.42;94.81
39891;BME280;25564;53.312;9.790;2023-03-03T07:54:34;101798.69;;;2.52;95.02
39891;BME280;25564;53.312;9.790;2023-03-03T07:59:51;101804.84;;;2.54;94.66
39891;BME280;25564;53.312;9.790;2023-03-03T08:02:29;101804.13;;;2.58;94.36
39891;BME280;25564;53.312;9.790;2023-03-03T08:08:13;101799.19;;;2.68;94.67
39891;BME280;25564;53.312;9.790;2023-03-03T08:10:51;101761.16;;;2.53;95.08
39891;BME280;25564;53.312;9.790;2023-03-03T08:13:27;101802.44;;;2.87;94.68
39891;BME280;25564;53.312;9.790;2023-03-03T08:18:45;101808.38;;;3.10;95.08
39891;BME280;25564;53.312;9.790;2023-03-03T08:21:18;101813.44;;;3.04;95.13
39891;BME280;25564;53.312;9.790;2023-03-03T08:23:51;101805.56;;;3.04;95.06
39891;BME280;25564;53.312;9.790;2023-03-03T08:26:24;101803.78;;;3.03;94.56
39891;BME280;25564;53.312;9.790;2023-03-03T08:28:56;101777.63;;;3.05;94.90
39891;BME280;25564;53.312;9.790;2023-03-03T08:31:27;101783.50;;;3.27;94.17
39891;BME280;25564;53.312;9.790;2023-03-03T08:34:12;101788.75;;;3.57;94.22
39891;BME280;25564;53.312;9.790;2023-03-03T08:36:43;101790.06;;;3.73;95.17
39891;BME280;25564;53.312;9.790;2023-03-03T08:39:14;101791.25;;;3.84;94.39
39891;BME280;25564;53.312;9.790;2023-03-03T08:41:46;101794.03;;;3.90;94.46
39891;BME280;25564;53.312;9.790;2023-03-03T08:44:18;101771.25;;;3.89;94.40
39891;BME280;25564;53.312;9.790;2023-03-03T08:46:50;101798.03;;;4.09;94.05
39891;BME280;25564;53.312;9.790;2023-03-03T08:49:22;101791.22;;;4.17;93.82
39891;BME280;25564;53.312;9.790;2023-03-03T08:51:53;101785.13;;;4.20;93.54
39891;BME280;25564;53.312;9.790;2023-03-03T08:54:25;101801.22;;;4.32;93.67
39891;BME280;25564;53.312;9.790;2023-03-03T08:56:57;101778.84;;;4.12;93.82
39891;BME280;25564;53.312;9.790;2023-03-03T08:59:28;101789.78;;;4.30;93.54
39891;BME280;25564;53.312;9.790;2023-03-03T09:01:59;101792.91;;;4.50;94.50
39891;BME280;25564;53.312;9.790;2023-03-03T09:04:31;101792.66;;;4.77;94.17
39891;BME280;25564;53.312;9.790;2023-03-03T09:07:02;101784.06;;;4.84;93.61
39891;BME280;25564;53.312;9.790;2023-03-03T09:09:33;101777.81;;;4.79;93.01
39891;BME280;25564;53.312;9.790;2023-03-03T09:12:32;101779.56;;;4.78;93.15
39891;BME280;25564;53.312;9.790;2023-03-03T09:15:43;101785.78;;;4.82;93.13
39891;BME280;25564;53.312;9.790;2023-03-03T09:18:16;101791.25;;;4.91;94.04
39891;BME280;25564;53.312;9.790;2023-03-03T09:20:53;101793.22;;;5.01;93.55
39891;BME280;25564;53.312;9.790;2023-03-03T09:24:09;101791.59;;;5.06;93.63
39891;BME280;25564;53.312;9.790;2023-03-03T09:26:47;101786.19;;;5.00;93.05
39891;BME280;25564;53.312;9.790;2023-03-03T09:37:23;101807.19;;;5.39;93.63
39891;BME280;25564;53.312;9.790;2023-03-03T09:39:57;101788.28;;;5.58;93.00
39891;BME280;25564;53.312;9.790;2023-03-03T09:48:09;101807.63;;;6.03;91.89
39891;BME280;25564;53.312;9.790;2023-03-03T09:51:09;101813.00;;;6.09;91.97
39891;BME280;25564;53.312;9.790;2023-03-03T09:56:38;101819.03;;;6.54;92.16
39891;BME280;25564;53.312;9.790;2023-03-03T10:02:23;101812.38;;;6.78;91.03
39891;BME280;25564;53.312;9.790;2023-03-03T10:05:33;101823.03;;;6.84;91.13
39891;BME280;25564;53.312;9.790;2023-03-03T10:17:05;101818.34;;;7.24;90.00
39891;BME280;25564;53.312;9.790;2023-03-03T10:20:06;101805.91;;;7.16;89.98
39891;BME280;25564;53.312;9.790;2023-03-03T10:25:52;101811.97;;;7.08;90.15
39891;BME280;25564;53.312;9.790;2023-03-03T10:31:43;101818.03;;;7.02;90.20
39891;BME280;25564;53.312;9.790;2023-03-03T10:34:30;101815.50;;;7.10;90.33
39891;BME280;25564;53.312;9.790;2023-03-03T10:37:43;101812.31;;;7.35;90.11
39891;BME280;25564;53.312;9.790;2023-03-03T10:41:10;101813.06;;;7.24;89.54
39891;BME280;25564;53.312;9.790;2023-03-03T10:46:33;101811.63;;;6.85;89.27
39891;BME280;25564;53.312;9.790;2023-03-03T10:49:30;101809.69;;;6.73;89.66
39891;BME280;25564;53.312;9.790;2023-03-03T10:52:18;101803.56;;;6.76;89.41
39891;BME280;25564;53.312;9.790;2023-03-03T10:55:20;101806.50;;;6.96;89.54
39891;BME280;25564;53.312;9.790;2023-03-03T10:57:58;101804.09;;;7.11;89.41
39891;BME280;25564;53.312;9.790;2023-03-03T11:00:42;101799.47;;;6.96;88.80
39891;BME280;25564;53.312;9.790;2023-03-03T11:06:21;101809.63;;;6.70;89.47
39891;BME280;25564;53.312;9.790;2023-03-03T11:11:46;101807.38;;;6.96;89.26
39891;BME280;25564;53.312;9.790;2023-03-03T11:14:43;101788.19;;;7.08;89.14
39891;BME280;25564;53.312;9.790;2023-03-03T11:20:35;101792.81;;;6.64;88.32
39891;BME280;25564;53.312;9.790;2023-03-03T11:32:24;101778.19;;;7.52;87.74
39891;BME280;25564;53.312;9.790;2023-03-03T11:35:25;101775.56;;;7.55;88.07
39891;BME280;25564;53.312;9.790;2023-03-03T11:41:19;101768.66;;;7.66;87.85
39891;BME280;25564;53.312;9.790;2023-03-03T11:43:57;101762.53;;;7.69;87.76
39891;BME280;25564;53.312;9.790;2023-03-03T11:46:39;101746.72;;;7.73;87.17
39891;BME280;25564;53.312;9.790;2023-03-03T11:49:21;101757.50;;;7.92;87.14
39891;BME280;25564;53.312;9.790;2023-03-03T11:52:20;101763.81;;;8.06;87.18
39891;BME280;25564;53.312;9.790;2023-03-03T11:57:42;101750.56;;;8.04;86.94
39891;BME280;25564;53.312;9.790;2023-03-03T12:09:08;101742.56;;;7.95;85.88
39891;BME280;25564;53.312;9.790;2023-03-03T12:11:54;101739.88;;;7.92;86.18
39891;BME280;25564;53.312;9.790;2023-03-03T12:17:31;101728.88;;;8.46;86.04
39891;BME280;25564;53.312;9.790;2023-03-03T12:20:09;101726.50;;;8.83;85.90
39891;BME280;25564;53.312;9.790;2023-03-03T12:22:57;101716.94;;;9.15;84.61
39891;BME280;25564;53.312;9.790;2023-03-03T12:25:43;101695.78;;;9.23;84.54
39891;BME280;25564;53.312;9.790;2023-03-03T12:28:24;101706.44;;;9.50;84.11
39891;BME280;25564;53.312;9.790;2023-03-03T12:31:15;101704.75;;;9.80;83.58
39891;BME280;25564;53.312;9.790;2023-03-03T12:37:27;101688.81;;;9.66;82.82
39891;BME280;25564;53.312;9.790;2023-03-03T12:40:07;101695.91;;;9.72;83.03
39891;BME280;25564;53.312;9.790;2023-03-03T12:42:52;101688.81;;;9.74;82.89
39891;BME280;25564;53.312;9.790;2023-03-03T12:59:47;101677.19;;;9.06;82.96
39891;BME280;25564;53.312;9.790;2023-03-03T13:02:42;101669.19;;;8.94;83.00
39891;BME280;25564;53.312;9.790;2023-03-03T13:17:16;101657.66;;;8.80;82.43
39891;BME280;25564;53.312;9.790;2023-03-03T13:20:02;101643.41;;;8.57;82.42
39891;BME280;25564;53.312;9.790;2023-03-03T13:22:48;101661.09;;;8.64;82.68
39891;BME280;25564;53.312;9.790;2023-03-03T13:25:51;101658.50;;;8.73;82.79
39891;BME280;25564;53.312;9.790;2023-03-03T13:28:36;101654.13;;;8.78;82.75
39891;BME280;25564;53.312;9.790;2023-03-03T13:31:20;101648.81;;;8.78;83.19
39891;BME280;25564;53.312;9.790;2023-03-03T13:33:54;101645.22;;;8.65;83.34
39891;BME280;25564;53.312;9.790;2023-03-03T13:36:52;101659.28;;;8.53;82.39
39891;BME280;25564;53.312;9.790;2023-03-03T13:39:32;101640.69;;;8.40;83.41
39891;BME280;25564;53.312;9.790;2023-03-03T13:42:26;101654.91;;;8.63;83.30
39891;BME280;25564;53.312;9.790;2023-03-03T13:45:00;101650.50;;;8.61;81.21
39891;BME280;25564;53.312;9.790;2023-03-03T13:50:26;101646.06;;;8.57;81.11
39891;BME280;25564;53.312;9.790;2023-03-03T14:02:42;101623.88;;;8.32;78.02
39891;BME280;25564;53.312;9.790;2023-03-03T14:08:04;101620.44;;;8.48;79.08
39891;BME280;25564;53.312;9.790;2023-03-03T14:13:50;101623.97;;;8.48;78.95
39891;BME280;25564;53.312;9.790;2023-03-03T14:16:48;101615.91;;;8.26;76.85
39891;BME280;25564;53.312;9.790;2023-03-03T14:19:31;101615.88;;;8.19;77.89
39891;BME280;25564;53.312;9.790;2023-03-03T14:22:18;101610.59;;;8.23;78.58
39891;BME280;25564;53.312;9.790;2023-03-03T14:25:10;101602.66;;;8.23;78.13
39891;BME280;25564;53.312;9.790;2023-03-03T14:30:33;101590.31;;;8.20;77.19
39891;BME280;25564;53.312;9.790;2023-03-03T14:35:40;101590.25;;;8.09;77.00
39891;BME280;25564;53.312;9.790;2023-03-03T14:38:21;101574.34;;;8.05;77.23
39891;BME280;25564;53.312;9.790;2023-03-03T14:41:16;101586.66;;;8.01;77.48
39891;BME280;25564;53.312;9.790;2023-03-03T14:44:20;101522.94;;;7.59;77.00
39891;BME280;25564;53.312;9.790;2023-03-03T14:49:40;101564.50;;;7.81;78.14
39891;BME280;25564;53.312;9.790;2023-03-03T14:54:54;101541.50;;;7.71;76.78
39891;BME280;25564;53.312;9.790;2023-03-03T15:03:22;101560.09;;;7.81;77.64
39891;BME280;25564;53.312;9.790;2023-03-03T15:05:57;101566.25;;;7.80;78.05
39891;BME280;25564;53.312;9.790;2023-03-03T15:08:34;101555.63;;;7.76;77.06
39891;BME280;25564;53.312;9.790;2023-03-03T15:11:24;101559.97;;;7.66;76.71
39891;BME280;25564;53.312;9.790;2023-03-03T15:14:13;101555.56;;;7.67;74.82
39891;BME280;25564;53.312;9.790;2023-03-03T15:16:45;101543.16;;;7.57;75.86
39891;BME280;25564;53.312;9.790;2023-03-03T15:19:35;101545.75;;;7.49;76.59
39891;BME280;25564;53.312;9.790;2023-03-03T15:22:16;101537.84;;;7.53;76.99
39891;BME280;25564;53.312;9.790;2023-03-03T15:24:57;101541.38;;;7.54;77.36
39891;BME280;25564;53.312;9.790;2023-03-03T15:27:52;101540.56;;;7.61;77.78
39891;BME280;25564;53.312;9.790;2023-03-03T15:30:43;101537.03;;;7.62;77.23
39891;BME280;25564;53.312;9.790;2023-03-03T15:36:15;101530.97;;;7.74;77.79
39891;BME280;25564;53.312;9.790;2023-03-03T15:41:44;101531.91;;;7.80;78.35
39891;BME280;25564;53.312;9.790;2023-03-03T15:50:07;101522.88;;;7.51;77.61
39891;BME280;25564;53.312;9.790;2023-03-03T15:52:53;101524.59;;;7.46;78.07
39891;BME280;25564;53.312;9.790;2023-03-03T15:59:01;101521.84;;;7.34;77.44
39891;BME280;25564;53.312;9.790;2023-03-03T16:02:08;101520.03;;;7.24;78.25
39891;BME280;25564;53.312;9.790;2023-03-03T16:04:51;101519.06;;;7.15;77.26
39891;BME280;25564;53.312;9.790;2023-03-03T16:07:32;101522.53;;;7.08;78.30
39891;BME280;25564;53.312;9.790;2023-03-03T16:10:19;101524.16;;;6.97;77.44
39891;BME280;25564;53.312;9.790;2023-03-03T16:13:18;101519.72;;;6.92;78.17
39891;BME280;25564;53.312;9.790;2023-03-03T16:25:03;101521.13;;;6.61;78.24
39891;BME280;25564;53.312;9.790;2023-03-03T16:27:51;101521.06;;;6.54;78.60
39891;BME280;25564;53.312;9.790;2023-03-03T16:30:34;101524.63;;;6.58;78.40
39891;BME280;25564;53.312;9.790;2023-03-03T16:33:17;101515.75;;;6.51;78.60
39891;BME280;25564;53.312;9.790;2023-03-03T16:36:07;101493.56;;;6.33;77.56
39891;BME280;25564;53.312;9.790;2023-03-03T16:38:50;101517.41;;;6.43;78.66
39891;BME280;25564;53.312;9.790;2023-03-03T16:41:49;101511.28;;;6.44;79.02
39891;BME280;25564;53.312;9.790;2023-03-03T16:44:35;101498.84;;;6.34;79.21
39891;BME280;25564;53.312;9.790;2023-03-03T16:47:20;101509.44;;;6.39;79.20
39891;BME280;25564;53.312;9.790;2023-03-03T16:50:13;101518.28;;;6.42;79.37
39891;BME280;25564;53.312;9.790;2023-03-03T16:52:53;101523.56;;;6.42;79.37
39891;BME280;25564;53.312;9.790;2023-03-03T16:55:41;101511.16;;;6.35;79.65
39891;BME280;25564;53.312;9.790;2023-03-03T16:58:28;101515.59;;;6.38;79.55
39891;BME280;25564;53.312;9.790;2023-03-03T17:01:34;101520.88;;;6.39;79.55
39891;BME280;25564;53.312;9.790;2023-03-03T17:04:20;101473.94;;;6.08;79.70
39891;BME280;25564;53.312;9.790;2023-03-03T17:13:10;101509.31;;;6.28;80.44